Time;durP1;ratioP1;P1;durP2;ratioP2;P2;SDS_P1;SDS_P2;PMS_P1;PMS_P2;Temp;Humidity;BMP_temperature;BMP_pressure;BME280_temperature;BME280_humidity;BME280_pressure;Samples;Min_cycle;Max_cycle;Signal;HPM_P1;HPM_P2
2022/07/12 00:00:50;;;;;;;0.70;0.60;;;;;;;28.25;40.62;99420.13;5026825;28;20128;-67
2022/07/12 00:03:15;;;;;;;0.50;0.50;;;;;;;28.24;40.77;99419.34;5030978;28;20379;-67
2022/07/12 00:05:41;;;;;;;0.45;0.45;;;;;;;28.22;40.52;99415.38;5026988;28;20041;-67
2022/07/12 00:08:06;;;;;;;0.20;0.20;;;;;;;28.26;40.72;99421.72;5023824;28;20048;-67
2022/07/12 00:10:32;;;;;;;0.43;0.43;;;;;;;28.23;40.70;99428.19;5026741;28;20340;-68
2022/07/12 00:12:58;;;;;;;0.55;0.45;;;;;;;28.22;40.58;99423.81;5024689;28;20061;-68
2022/07/12 00:15:23;;;;;;;0.55;0.40;;;;;;;28.20;40.69;99418.56;5023832;28;20410;-67
2022/07/12 00:17:49;;;;;;;0.68;0.50;;;;;;;28.20;40.39;99418.56;5024913;28;20374;-67
2022/07/12 00:20:15;;;;;;;0.47;0.40;;;;;;;28.22;40.79;99418.19;5023286;28;20045;-67
2022/07/12 00:22:40;;;;;;;0.43;0.40;;;;;;;28.22;40.72;99415.38;5027529;28;20042;-67
2022/07/12 00:25:06;;;;;;;0.35;0.35;;;;;;;28.21;40.79;99422.19;5029556;28;20397;-67
2022/07/12 00:27:32;;;;;;;0.68;0.55;;;;;;;28.20;40.70;99426.22;5023901;28;20420;-67
2022/07/12 00:29:57;;;;;;;0.40;0.40;;;;;;;28.20;40.75;99429.84;5008176;28;20050;-67
2022/07/12 00:32:23;;;;;;;0.40;0.40;;;;;;;28.20;40.85;99429.84;5026766;28;20037;-67
2022/07/12 00:34:49;;;;;;;0.70;0.50;;;;;;;28.19;40.93;99433.06;5010754;28;20169;-67
2022/07/12 00:37:14;;;;;;;0.47;0.47;;;;;;;28.18;41.08;99434.28;5024814;28;20077;-68
2022/07/12 00:39:40;;;;;;;0.70;0.40;;;;;;;28.19;40.80;99433.88;5024072;28;20382;-68
2022/07/12 00:42:05;;;;;;;0.40;0.40;;;;;;;28.20;41.17;99441.06;5022206;28;20052;-67
2022/07/12 00:44:33;;;;;;;0.40;0.40;;;;;;;28.18;41.18;99439.94;5026442;28;20449;-68
2022/07/12 00:47:00;;;;;;;0.43;0.40;;;;;;;28.16;40.98;99440.34;5030338;28;20565;-67
2022/07/12 00:49:25;;;;;;;0.52;0.40;;;;;;;28.16;40.92;99440.34;5031553;28;20045;-67
2022/07/12 00:51:51;;;;;;;0.40;0.40;;;;;;;28.16;41.20;99437.53;5029366;28;20060;-67
2022/07/12 00:54:17;;;;;;;0.50;0.40;;;;;;;28.16;40.97;99437.53;5029517;28;20476;-67
2022/07/12 00:56:43;;;;;;;0.50;0.40;;;;;;;28.15;41.05;99432.34;5031812;28;20042;-67
2022/07/12 00:59:09;;;;;;;0.80;0.60;;;;;;;28.14;41.06;99430.72;5026457;28;20041;-67
2022/07/12 01:01:35;;;;;;;0.57;0.50;;;;;;;28.14;41.47;99437.16;5028243;28;20357;-67
2022/07/12 01:04:01;;;;;;;0.50;0.50;;;;;;;28.14;41.02;99445.59;5024238;28;20037;-67
2022/07/12 01:06:26;;;;;;;0.43;0.40;;;;;;;28.15;41.25;99438.78;5041785;28;20103;-67
2022/07/12 01:08:53;;;;;;;0.60;0.40;;;;;;;28.15;41.13;99450.03;5028329;28;20041;-67
2022/07/12 01:11:18;;;;;;;1.38;0.60;;;;;;;28.14;41.18;99439.97;5027907;28;20070;-67
2022/07/12 01:13:45;;;;;;;0.65;0.43;;;;;;;28.14;41.17;99450.41;5019409;28;20037;-74
2022/07/12 01:16:12;;;;;;;0.93;0.47;;;;;;;28.15;41.13;99444.41;5030423;28;20038;-74
2022/07/12 01:18:39;;;;;;;0.70;0.60;;;;;;;28.13;41.19;99446.81;5026240;28;20037;-74
2022/07/12 01:21:07;;;;;;;1.42;0.45;;;;;;;28.14;41.10;99442.78;5037004;28;20399;-73
2022/07/12 01:23:34;;;;;;;0.77;0.40;;;;;;;28.14;41.17;99436.34;5025725;28;20154;-74
2022/07/12 01:26:01;;;;;;;0.73;0.50;;;;;;;28.12;41.14;99433.19;5032507;28;20037;-74
2022/07/12 01:28:26;;;;;;;1.00;0.50;;;;;;;28.12;41.14;99447.25;5044695;28;20435;-73
2022/07/12 01:30:52;;;;;;;0.68;0.50;;;;;;;28.12;41.19;99450.06;5045688;28;20120;-74
2022/07/12 01:33:18;;;;;;;0.70;0.50;;;;;;;28.14;41.14;99444.78;5038013;28;20128;-74
2022/07/12 01:35:46;;;;;;;0.82;0.43;;;;;;;28.15;41.10;99452.84;5010255;28;20394;-74
2022/07/12 01:38:12;;;;;;;1.20;0.50;;;;;;;28.12;41.06;99456.47;5026090;28;20413;-67
2022/07/12 01:40:38;;;;;;;0.68;0.52;;;;;;;28.12;41.12;99456.47;5029742;28;20535;-67
2022/07/12 01:43:04;;;;;;;0.80;0.60;;;;;;;28.15;41.12;99452.84;5032107;28;20060;-67
2022/07/12 01:45:29;;;;;;;0.73;0.40;;;;;;;28.12;41.07;99461.31;5044990;28;20176;-67
2022/07/12 01:47:58;;;;;;;1.58;0.55;;;;;;;28.13;41.15;99457.25;5043856;28;20037;-67
2022/07/12 01:50:24;;;;;;;0.55;0.50;;;;;;;28.11;41.29;99460.50;5044537;28;20064;-67
2022/07/12 01:52:49;;;;;;;0.95;0.50;;;;;;;28.12;40.97;99464.91;5027673;28;20076;-67
2022/07/12 01:55:15;;;;;;;0.50;0.40;;;;;;;28.10;41.29;99469.38;5024901;28;20413;-67
2022/07/12 01:57:43;;;;;;;0.47;0.40;;;;;;;28.10;41.19;99469.38;5025865;28;20045;-67
2022/07/12 02:00:09;;;;;;;0.63;0.57;;;;;;;28.10;40.99;99472.19;5023533;28;20041;-67
2022/07/12 02:02:35;;;;;;;0.60;0.43;;;;;;;28.10;41.22;99480.63;5022592;28;20124;-68
2022/07/12 02:05:02;;;;;;;1.48;0.63;;;;;;;28.07;41.09;99475.84;5020863;28;20140;-67
2022/07/12 02:07:29;;;;;;;0.50;0.50;;;;;;;28.08;41.07;99492.31;5037368;28;20045;-67
2022/07/12 02:09:54;;;;;;;0.50;0.40;;;;;;;28.08;41.08;99483.06;5029485;28;20033;-68
2022/07/12 02:12:20;;;;;;;0.50;0.40;;;;;;;28.07;41.03;99481.47;5019382;28;20034;-67
2022/07/12 02:14:45;;;;;;;0.32;0.30;;;;;;;28.07;40.91;99479.44;5023063;28;20045;-67
2022/07/12 02:17:11;;;;;;;0.43;0.43;;;;;;;28.06;41.04;99491.91;5025322;28;20052;-67
2022/07/12 02:19:36;;;;;;;0.35;0.30;;;;;;;28.07;40.63;99482.25;5029093;28;20041;-67
2022/07/12 02:22:02;;;;;;;0.85;0.43;;;;;;;28.03;40.89;99481.53;5025294;28;20068;-67
2022/07/12 02:24:28;;;;;;;0.65;0.52;;;;;;;28.07;40.95;99487.06;5020055;28;20038;-73
2022/07/12 02:26:54;;;;;;;0.43;0.30;;;;;;;28.06;40.87;99482.69;5023179;28;20367;-74
2022/07/12 02:29:19;;;;;;;0.63;0.43;;;;;;;28.06;40.84;99499.56;5027643;28;20041;-73
2022/07/12 02:31:46;;;;;;;0.55;0.40;;;;;;;28.07;40.78;99489.88;5021892;28;20036;-74
2022/07/12 02:34:11;;;;;;;0.40;0.40;;;;;;;28.07;40.61;99487.88;5022876;28;20535;-74
2022/07/12 02:36:36;;;;;;;1.08;0.50;;;;;;;28.07;40.68;99484.25;5005351;28;20053;-74
2022/07/12 02:39:04;;;;;;;0.47;0.45;;;;;;;28.06;40.55;99491.13;5003611;28;20044;-74
2022/07/12 02:41:30;;;;;;;0.50;0.50;;;;;;;28.08;40.59;99494.31;5023001;28;20507;-74
2022/07/12 02:43:55;;;;;;;0.43;0.40;;;;;;;28.05;40.43;99490.31;5006493;28;20041;-74
2022/07/12 02:46:21;;;;;;;0.52;0.47;;;;;;;28.06;40.32;99489.09;5021867;28;20044;-74
2022/07/12 02:48:46;;;;;;;0.90;0.55;;;;;;;28.04;40.70;99485.91;5021810;28;20500;-74
2022/07/12 02:51:12;;;;;;;0.40;0.40;;;;;;;28.06;40.53;99496.75;5021604;28;20037;-74
2022/07/12 02:53:38;;;;;;;0.60;0.50;;;;;;;28.04;40.54;99491.53;5020878;28;20040;-74
2022/07/12 02:56:04;;;;;;;0.68;0.50;;;;;;;28.04;40.62;99488.72;5024386;28;20045;-74
2022/07/12 02:58:30;;;;;;;0.40;0.40;;;;;;;28.04;40.57;99504.81;5032721;28;20052;-73
2022/07/12 03:00:55;;;;;;;0.55;0.50;;;;;;;28.03;40.65;99495.56;5026101;28;20058;-74
2022/07/12 03:03:21;;;;;;;0.60;0.43;;;;;;;28.06;40.52;99496.75;5021798;28;20429;-74
2022/07/12 03:05:47;;;;;;;0.40;0.40;;;;;;;28.02;40.71;99496.81;5021039;28;20033;-74
2022/07/12 03:08:13;;;;;;;0.40;0.40;;;;;;;28.04;40.49;99496.38;5023365;28;20103;-74
2022/07/12 03:10:39;;;;;;;0.60;0.50;;;;;;;28.05;40.53;99497.97;5025057;28;20124;-74
2022/07/12 03:13:05;;;;;;;0.30;0.30;;;;;;;28.04;40.33;99499.19;5001939;28;20049;-73
2022/07/12 03:15:31;;;;;;;0.80;0.40;;;;;;;28.02;40.31;99494.00;5019927;28;20406;-73
2022/07/12 03:18:01;;;;;;;0.30;0.30;;;;;;;28.02;40.34;99504.44;5022323;28;20049;-67
2022/07/12 03:20:28;;;;;;;0.40;0.40;;;;;;;28.02;40.28;99502.44;5022280;28;20060;-67
2022/07/12 03:22:53;;;;;;;0.40;0.40;;;;;;;28.01;40.14;99500.03;5022733;28;20045;-67
2022/07/12 03:25:20;;;;;;;0.43;0.40;;;;;;;28.03;40.28;99508.84;5021660;28;20056;-74
2022/07/12 03:27:45;;;;;;;0.65;0.50;;;;;;;28.00;40.12;99502.03;5022191;28;20562;-67
2022/07/12 03:30:12;;;;;;;0.40;0.40;;;;;;;28.00;40.06;99502.03;5025232;28;20493;-67
2022/07/12 03:32:38;;;;;;;0.93;0.70;;;;;;;28.03;39.92;99511.66;5021391;28;20056;-67
2022/07/12 03:35:04;;;;;;;0.65;0.52;;;;;;;28.01;39.78;99505.66;5021430;28;20536;-67
2022/07/12 03:37:43;;;;;;;0.32;0.32;;;;;;;28.02;39.70;99512.88;5025121;28;20052;-67
2022/07/12 03:40:10;;;;;;;0.50;0.40;;;;;;;28.02;39.94;99522.09;5026256;28;20049;-67
2022/07/12 03:42:35;;;;;;;0.50;0.45;;;;;;;28.00;39.97;99515.28;5034663;28;20091;-67
2022/07/12 03:45:01;;;;;;;0.80;0.57;;;;;;;28.02;39.89;99522.09;5026560;28;20042;-69
2022/07/12 03:47:26;;;;;;;0.20;0.20;;;;;;;28.00;39.93;99518.09;5035687;28;20548;-67
2022/07/12 03:49:52;;;;;;;0.40;0.40;;;;;;;28.00;39.85;99527.34;5007439;28;20049;-67
2022/07/12 03:52:17;;;;;;;0.50;0.50;;;;;;;27.99;39.82;99525.75;5032940;28;20041;-67
2022/07/12 03:54:43;;;;;;;0.43;0.38;;;;;;;27.97;39.68;99523.38;5027217;28;20409;-68
2022/07/12 03:57:14;;;;;;;0.40;0.40;;;;;;;27.97;39.73;99533.81;5024944;28;20422;-67
2022/07/12 03:59:40;;;;;;;0.60;0.50;;;;;;;27.98;39.68;99529.78;5027071;28;20468;-67
2022/07/12 04:02:06;;;;;;;0.30;0.30;;;;;;;27.97;39.84;99528.19;5024522;28;20059;-67
2022/07/12 04:04:31;;;;;;;0.40;0.40;;;;;;;27.97;39.83;99533.81;5024984;28;20046;-74
2022/07/12 04:06:57;;;;;;;0.40;0.40;;;;;;;27.98;39.67;99538.22;5025503;28;20042;-74
2022/07/12 04:09:22;;;;;;;0.50;0.50;;;;;;;27.95;39.68;99539.88;5035215;28;20055;-73
2022/07/12 04:11:47;;;;;;;0.82;0.50;;;;;;;28.01;39.64;99545.03;5026248;28;20042;-73
2022/07/12 04:14:13;;;;;;;0.63;0.45;;;;;;;27.98;39.63;99549.47;5024567;28;20049;-73
2022/07/12 04:16:38;;;;;;;0.60;0.35;;;;;;;27.97;39.53;99559.91;5040710;28;20083;-74
2022/07/12 04:19:05;;;;;;;0.25;0.25;;;;;;;27.97;39.46;99554.28;5025088;28;20045;-74
2022/07/12 04:21:31;;;;;;;0.38;0.38;;;;;;;27.97;39.29;99557.09;5030599;28;20231;-74
2022/07/12 04:23:56;;;;;;;0.40;0.40;;;;;;;27.98;39.33;99558.69;5027957;28;20033;-74
2022/07/12 04:26:22;;;;;;;0.50;0.50;;;;;;;27.98;39.41;99558.69;5031901;28;20088;-73
2022/07/12 04:28:47;;;;;;;0.52;0.40;;;;;;;27.98;39.44;99566.34;5024457;28;20350;-73
2022/07/12 04:31:12;;;;;;;0.32;0.30;;;;;;;27.94;39.53;99557.97;5025144;28;20038;-73
2022/07/12 04:33:38;;;;;;;0.52;0.35;;;;;;;27.94;39.52;99565.59;5025885;28;20045;-74
2022/07/12 04:36:03;;;;;;;0.40;0.40;;;;;;;27.95;39.36;99565.16;5024726;28;20107;-74
2022/07/12 04:38:29;;;;;;;0.40;0.40;;;;;;;27.97;39.57;99561.94;5024069;28;20045;-74
2022/07/12 04:40:54;;;;;;;0.40;0.40;;;;;;;27.97;39.36;99567.56;5023889;28;20051;-74
2022/07/12 04:43:20;;;;;;;0.32;0.32;;;;;;;27.95;39.46;99565.16;5023108;28;20030;-74
2022/07/12 04:45:45;;;;;;;0.73;0.50;;;;;;;27.96;39.41;99574.41;5025412;28;20124;-74
2022/07/12 04:48:11;;;;;;;0.38;0.38;;;;;;;27.94;39.46;99577.63;5025525;28;20133;-73
2022/07/12 04:50:37;;;;;;;0.30;0.30;;;;;;;27.95;39.19;99576.41;5025458;28;20080;-73
2022/07/12 04:53:02;;;;;;;0.30;0.30;;;;;;;27.98;39.26;99571.97;5021522;28;20435;-73
2022/07/12 04:55:28;;;;;;;0.30;0.20;;;;;;;27.99;39.33;99579.16;5023035;28;20405;-73
2022/07/12 04:57:54;;;;;;;0.45;0.45;;;;;;;28.01;39.40;99573.16;5024700;28;20050;-73
2022/07/12 05:00:20;;;;;;;0.50;0.45;;;;;;;28.02;39.58;99575.53;5011178;28;21018;-73
2022/07/12 05:02:46;;;;;;;0.63;0.40;;;;;;;28.07;39.46;99571.44;5027603;28;20049;-73
2022/07/12 05:05:11;;;;;;;0.73;0.50;;;;;;;28.10;39.38;99579.84;5025033;28;20053;-73
2022/07/12 05:07:36;;;;;;;0.55;0.43;;;;;;;28.10;39.20;99571.41;5027046;28;20047;-73
2022/07/12 05:10:02;;;;;;;0.60;0.40;;;;;;;28.14;39.31;99580.59;5023478;28;20056;-73
2022/07/12 05:12:27;;;;;;;0.40;0.38;;;;;;;28.15;39.35;99581.41;5029522;28;20466;-73
2022/07/12 05:14:53;;;;;;;0.30;0.30;;;;;;;28.16;39.41;99583.00;5029282;28;20041;-73
2022/07/12 05:17:18;;;;;;;0.65;0.38;;;;;;;28.18;39.46;99581.34;5029361;28;20053;-73
2022/07/12 05:19:44;;;;;;;0.57;0.40;;;;;;;28.22;39.51;99589.75;5029127;28;20041;-73
2022/07/12 05:22:09;;;;;;;0.32;0.32;;;;;;;28.24;39.41;99595.75;5029497;28;20169;-72
2022/07/12 05:24:35;;;;;;;0.40;0.40;;;;;;;28.21;39.43;99599.38;5027292;28;20390;-74
2022/07/12 05:27:00;;;;;;;0.55;0.40;;;;;;;28.19;39.75;99597.00;5024545;28;20512;-73
2022/07/12 05:29:25;;;;;;;0.93;0.40;;;;;;;28.21;39.68;99603.00;5024723;28;20046;-74
2022/07/12 05:31:55;;;;;;;2.17;0.43;;;;;;;28.23;39.77;99600.59;5021206;28;20045;-73
2022/07/12 05:34:21;;;;;;;0.63;0.57;;;;;;;28.25;39.68;99594.53;5033680;28;20069;-73
2022/07/12 05:36:46;;;;;;;1.10;0.50;;;;;;;28.28;39.62;99602.09;5024372;28;20037;-73
2022/07/12 05:39:12;;;;;;;0.55;0.40;;;;;;;28.28;39.88;99596.47;5023807;28;20572;-73
2022/07/12 05:41:38;;;;;;;0.70;0.30;;;;;;;28.32;39.67;99602.09;5022851;28;20053;-73
2022/07/12 05:44:03;;;;;;;0.50;0.40;;;;;;;28.34;39.57;99603.28;5027487;28;20042;-73
2022/07/12 05:46:29;;;;;;;5.70;0.90;;;;;;;28.34;39.69;99603.28;5028840;28;20077;-73
2022/07/12 05:48:54;;;;;;;3.55;0.60;;;;;;;28.35;39.57;99598.44;5028544;28;20056;-73
2022/07/12 05:54:04;;;;;;;4.15;0.63;;;;;;;28.33;39.62;99589.63;5028910;28;20139;-74
2022/07/12 05:56:30;;;;;;;13.02;0.70;;;;;;;28.33;39.55;99595.25;5028005;28;20100;-73
2022/07/12 05:58:55;;;;;;;2.92;0.60;;;;;;;28.33;39.59;99595.25;5027911;28;20563;-74
2022/07/12 06:01:21;;;;;;;6.43;0.63;;;;;;;28.38;40.64;99589.97;5009528;28;20054;-74
2022/07/12 06:03:46;;;;;;;2.85;0.60;;;;;;;28.35;40.13;99598.44;5028753;28;20041;-69
2022/07/12 06:06:12;;;;;;;1.00;0.57;;;;;;;28.24;41.17;99593.72;5025145;28;20049;-73
2022/07/12 06:08:37;;;;;;;1.40;0.55;;;;;;;28.06;41.82;99610.00;5027078;28;20041;-73
2022/07/12 06:11:03;;;;;;;1.67;0.50;;;;;;;27.98;41.91;99614.94;5027980;28;20046;-73
2022/07/12 06:13:28;;;;;;;1.05;0.40;;;;;;;27.93;41.83;99612.59;5027391;28;20448;-74
2022/07/12 06:15:55;;;;;;;1.27;0.60;;;;;;;27.94;41.87;99608.56;5033531;28;20069;-74
2022/07/12 06:18:21;;;;;;;4.13;0.80;;;;;;;27.95;41.79;99612.97;5026227;28;20052;-74
2022/07/12 06:20:47;;;;;;;3.20;0.60;;;;;;;27.96;41.77;99619.38;5023943;28;20049;-74
2022/07/12 06:23:12;;;;;;;1.08;0.68;;;;;;;28.01;41.45;99616.13;5028549;28;20060;-74
2022/07/12 06:25:39;;;;;;;2.88;0.50;;;;;;;28.03;41.37;99622.13;5021834;28;20033;-74
2022/07/12 06:28:04;;;;;;;0.73;0.47;;;;;;;28.06;41.29;99620.47;5024325;28;20053;-74
2022/07/12 06:30:30;;;;;;;5.90;4.03;;;;;;;28.05;40.41;99610.44;5028164;28;20508;-74
2022/07/12 06:32:55;;;;;;;6.88;3.47;;;;;;;28.05;39.72;99610.44;5025679;28;20501;-74
2022/07/12 06:35:21;;;;;;;5.85;3.53;;;;;;;27.96;39.57;99611.75;5028461;28;20068;-74
2022/07/12 06:37:47;;;;;;;5.65;3.10;;;;;;;27.87;39.70;99617.09;5024454;28;20046;-74
2022/07/12 06:40:12;;;;;;;8.57;2.03;;;;;;;27.78;39.30;99622.38;5026329;28;20084;-74
2022/07/12 06:42:38;;;;;;;6.55;2.83;;;;;;;27.69;39.44;99622.09;5027255;28;20049;-74
2022/07/12 06:45:04;;;;;;;6.05;3.17;;;;;;;27.61;39.41;99612.09;5022081;28;20069;-74
2022/07/12 06:47:29;;;;;;;9.23;3.30;;;;;;;27.67;39.31;99621.69;5029369;28;20052;-73
2022/07/12 06:49:55;;;;;;;4.47;3.00;;;;;;;27.69;39.34;99616.47;5008768;28;20037;-74
2022/07/12 06:52:20;;;;;;;3.97;2.50;;;;;;;27.75;39.63;99620.41;5025913;28;20072;-74
2022/07/12 06:54:46;;;;;;;4.47;2.42;;;;;;;27.82;39.65;99617.53;5026196;28;20049;-75
2022/07/12 06:57:11;;;;;;;4.28;1.95;;;;;;;27.69;39.69;99611.63;5023679;28;20537;-75
2022/07/12 06:59:37;;;;;;;4.70;1.58;;;;;;;27.48;39.71;99602.59;5013577;28;20048;-76
2022/07/12 07:02:04;;;;;;;4.25;1.35;;;;;;;27.13;40.12;99610.91;4998265;28;20582;-78
2022/07/12 07:04:29;;;;;;;5.30;1.55;;;;;;;26.89;41.30;99607.06;4997762;28;20632;-76
2022/07/12 07:06:54;;;;;;;4.05;1.50;;;;;;;26.62;40.76;99603.22;5019011;28;20129;-75
2022/07/12 07:09:20;;;;;;;5.80;1.58;;;;;;;26.35;41.44;99598.13;5018193;28;20082;-76
2022/07/12 07:11:45;;;;;;;8.32;1.52;;;;;;;26.28;44.00;99598.16;5020820;28;20041;-74
2022/07/12 07:14:11;;;;;;;5.80;1.40;;;;;;;26.35;44.25;99603.75;5025320;28;20111;-80
2022/07/12 07:16:36;;;;;;;2.70;1.30;;;;;;;26.41;42.32;99604.16;5004825;28;20050;-73
2022/07/12 07:19:02;;;;;;;3.70;1.10;;;;;;;26.30;41.05;99601.38;5020199;28;20053;-74
2022/07/12 07:21:28;;;;;;;5.95;1.33;;;;;;;26.22;43.74;99610.22;5017368;28;20058;-72
2022/07/12 07:23:55;;;;;;;4.70;1.60;;;;;;;26.30;44.67;99612.59;5023735;28;20049;-75
2022/07/12 07:26:21;;;;;;;4.40;2.08;;;;;;;26.41;42.77;99604.16;5020696;28;20146;-68
2022/07/12 07:31:34;;;;;;;4.03;1.60;;;;;;;26.16;43.94;99606.25;5016797;28;20068;-68
2022/07/12 07:34:00;;;;;;;5.05;1.60;;;;;;;26.27;44.21;99607.00;5020746;28;20095;-75
2022/07/12 07:36:26;;;;;;;6.97;1.85;;;;;;;26.40;42.22;99601.75;5022015;28;20052;-71
2022/07/12 07:38:51;;;;;;;5.68;1.55;;;;;;;26.29;40.99;99601.75;5023848;28;20437;-67
2022/07/12 07:41:17;;;;;;;5.68;1.67;;;;;;;26.17;44.43;99600.22;5020818;28;20053;-69
2022/07/12 07:43:43;;;;;;;9.43;1.77;;;;;;;26.25;44.74;99601.00;5019640;28;20107;-68
2022/07/12 07:46:08;;;;;;;10.00;1.40;;;;;;;26.51;44.49;99599.72;5022945;28;20046;-69
2022/07/12 07:48:33;;;;;;;7.20;1.60;;;;;;;26.54;42.49;99601.69;5004205;28;20428;-68
2022/07/12 07:50:59;;;;;;;10.23;1.80;;;;;;;26.49;41.42;99597.28;5017234;28;20441;-68
2022/07/12 07:53:25;;;;;;;7.85;1.80;;;;;;;26.31;41.08;99594.56;5021794;28;20145;-80
2022/07/12 07:55:50;;;;;;;6.03;2.17;;;;;;;26.19;40.87;99591.41;5005864;28;20826;-76
2022/07/12 07:58:16;;;;;;;6.43;2.85;;;;;;;26.12;43.46;99589.44;5012589;28;20054;-80
2022/07/12 08:00:41;;;;;;;5.78;2.78;;;;;;;26.26;44.49;99592.16;4998513;28;20076;-75
2022/07/12 08:03:07;;;;;;;6.63;2.63;;;;;;;26.39;43.52;99584.13;5003036;28;20809;-74
2022/07/12 08:05:32;;;;;;;9.38;2.42;;;;;;;26.37;42.68;99588.53;5009181;28;20086;-74
2022/07/12 08:07:57;;;;;;;4.15;2.03;;;;;;;26.27;42.19;99588.16;5010301;28;20045;-73
2022/07/12 08:10:24;;;;;;;3.78;1.95;;;;;;;26.23;40.99;99586.59;5015493;28;20069;-73
2022/07/12 08:12:49;;;;;;;4.53;1.90;;;;;;;26.18;41.23;99590.59;5014088;28;20045;-73
2022/07/12 08:15:15;;;;;;;6.68;1.95;;;;;;;26.03;41.16;99584.25;5015986;28;20166;-74
2022/07/12 08:17:40;;;;;;;4.20;1.70;;;;;;;25.94;40.60;99589.50;5015297;28;20635;-74
2022/07/12 08:20:06;;;;;;;3.80;1.52;;;;;;;25.88;42.44;99581.94;5010446;28;20060;-76
2022/07/12 08:22:32;;;;;;;4.60;1.83;;;;;;;25.94;44.24;99581.09;5015348;28;20048;-73
2022/07/12 08:24:58;;;;;;;4.97;1.30;;;;;;;26.08;44.54;99580.25;5021382;28;20045;-75
2022/07/12 08:27:23;;;;;;;2.92;1.20;;;;;;;26.22;43.09;99582.16;5019044;28;20112;-74
2022/07/12 08:29:50;;;;;;;2.55;1.40;;;;;;;26.24;42.35;99591.78;5018672;28;20033;-67
2022/07/12 08:32:15;;;;;;;3.85;1.40;;;;;;;26.12;41.87;99585.81;5027225;28;20042;-67
2022/07/12 08:34:41;;;;;;;1.90;1.00;;;;;;;26.05;40.76;99592.25;5018262;28;20045;-68
2022/07/12 08:37:06;;;;;;;2.22;1.10;;;;;;;25.99;42.94;99591.06;5019848;28;20379;-68
2022/07/12 08:39:32;;;;;;;3.67;1.50;;;;;;;26.04;44.16;99590.66;5023919;28;20061;-68
2022/07/12 08:41:57;;;;;;;3.67;1.13;;;;;;;26.22;43.85;99590.56;5018019;28;20042;-67
2022/07/12 08:44:23;;;;;;;5.35;1.35;;;;;;;26.21;42.35;99589.78;5028319;28;20519;-67
2022/07/12 08:46:48;;;;;;;5.25;1.35;;;;;;;26.22;41.02;99585.78;5028020;28;20046;-67
2022/07/12 08:49:15;;;;;;;4.90;1.30;;;;;;;26.28;43.62;99595.34;5019638;28;20037;-67
2022/07/12 08:51:40;;;;;;;5.38;1.33;;;;;;;26.34;44.10;99592.94;5013456;28;20485;-68
2022/07/12 08:54:07;;;;;;;6.38;1.27;;;;;;;26.37;42.20;99577.31;5019405;28;20140;-72
2022/07/12 08:56:37;;;;;;;5.30;1.60;;;;;;;26.18;41.77;99568.19;5015226;28;20208;-64
2022/07/12 08:59:29;;;;;;;7.70;1.38;;;;;;;26.24;44.06;99579.78;5019055;28;20050;-67
2022/07/12 09:01:54;;;;;;;17.10;3.03;;;;;;;26.28;43.91;99572.13;5019094;28;20061;-67
2022/07/12 09:04:25;;;;;;;8.07;1.20;;;;;;;26.28;42.18;99570.13;5021375;28;20049;-67
2022/07/12 09:06:51;;;;;;;7.70;1.60;;;;;;;26.25;42.23;99564.53;5017095;28;20053;-67
2022/07/12 09:09:35;;;;;;;4.90;1.33;;;;;;;26.13;41.79;99571.41;5012261;28;20528;-67
2022/07/12 09:12:01;;;;;;;3.65;1.15;;;;;;;26.01;41.26;99574.69;4997805;28;20076;-67
2022/07/12 09:14:27;;;;;;;2.95;1.23;;;;;;;25.91;40.89;99567.09;5018371;28;20047;-67
2022/07/12 09:17:12;;;;;;;3.25;1.05;;;;;;;25.87;43.28;99571.94;5013541;28;20037;-67
2022/07/12 09:19:38;;;;;;;2.60;1.23;;;;;;;26.02;43.64;99565.84;5015546;28;20049;-67
2022/07/12 09:22:05;;;;;;;4.35;0.98;;;;;;;26.09;42.55;99570.63;5019984;28;20058;-69
2022/07/12 09:24:31;;;;;;;2.72;1.20;;;;;;;26.10;41.77;99566.63;5022229;28;20041;-66
2022/07/12 09:27:00;;;;;;;2.20;0.85;;;;;;;26.02;41.17;99565.06;5009649;28;20240;-66
2022/07/12 09:29:25;;;;;;;4.03;0.90;;;;;;;25.98;41.02;99564.25;5008405;28;20053;-67
2022/07/12 09:37:21;;;;;;;2.13;1.00;;;;;;;25.73;43.97;99553.94;5006200;28;20102;-66
2022/07/12 09:39:47;;;;;;;1.40;0.80;;;;;;;25.87;44.40;99552.31;5018527;28;20066;-67
2022/07/12 09:42:13;;;;;;;2.25;0.90;;;;;;;26.03;42.82;99558.25;5012190;28;20152;-67
2022/07/12 09:44:40;;;;;;;4.57;0.70;;;;;;;25.99;42.36;99546.22;5013444;28;20042;-67
2022/07/12 09:47:15;;;;;;;3.47;0.93;;;;;;;25.93;41.32;99556.25;5024446;28;20041;-67
2022/07/12 09:49:44;;;;;;;1.50;0.88;;;;;;;25.85;44.24;99544.28;5010358;28;20041;-67
2022/07/12 09:52:27;;;;;;;3.03;0.90;;;;;;;26.01;44.31;99552.25;4992221;28;20080;-67
2022/07/12 09:54:54;;;;;;;4.65;0.88;;;;;;;26.08;42.40;99551.44;4985159;28;20160;-67
2022/07/12 09:57:19;;;;;;;1.38;0.73;;;;;;;26.02;41.26;99551.03;4993152;28;20069;-67
2022/07/12 09:59:46;;;;;;;2.72;1.00;;;;;;;25.89;43.31;99549.88;4987781;28;20063;-67
2022/07/12 10:02:15;;;;;;;0.90;0.70;;;;;;;25.91;44.14;99542.66;4993145;28;20052;-68
2022/07/12 10:04:42;;;;;;;4.43;0.80;;;;;;;26.05;43.77;99548.22;4997897;28;20049;-67
2022/07/12 10:07:08;;;;;;;1.75;0.77;;;;;;;26.10;42.15;99547.00;5001699;28;20096;-67
2022/07/12 10:09:35;;;;;;;0.88;0.60;;;;;;;25.98;41.48;99547.44;5002216;28;20053;-67
2022/07/12 10:12:02;;;;;;;2.08;0.70;;;;;;;25.88;44.37;99551.09;5007581;28;21674;-67
2022/07/12 10:14:28;;;;;;;2.20;0.88;;;;;;;25.96;44.29;99552.66;5025471;28;20128;-68
2022/07/12 10:16:56;;;;;;;2.53;0.80;;;;;;;26.08;42.51;99545.81;4996451;28;20522;-68
2022/07/12 10:19:23;;;;;;;2.38;0.63;;;;;;;25.98;41.26;99544.63;5037023;28;20095;-68
2022/07/12 10:21:50;;;;;;;2.63;0.80;;;;;;;25.76;44.45;99530.72;5047053;28;20044;-67
2022/07/12 10:24:36;;;;;;;1.02;0.70;;;;;;;25.92;44.76;99535.06;5032139;28;20619;-68
2022/07/12 10:27:13;;;;;;;0.98;0.70;;;;;;;26.04;43.16;99534.59;5038697;28;20068;-69
2022/07/12 10:29:39;;;;;;;1.42;0.75;;;;;;;25.97;41.95;99535.44;5035283;28;20136;-68
2022/07/12 10:32:33;;;;;;;1.88;0.90;;;;;;;25.75;44.24;99536.72;5036241;28;20115;-68
2022/07/12 10:35:01;;;;;;;1.30;0.75;;;;;;;25.78;44.73;99527.50;5038310;28;20480;-74
2022/07/12 10:37:29;;;;;;;1.15;0.70;;;;;;;25.93;44.71;99531.03;5018100;28;20061;-72
2022/07/12 10:40:34;;;;;;;0.90;0.50;;;;;;;26.03;42.24;99527.41;5014034;28;20052;-66
2022/07/12 10:43:05;;;;;;;2.35;0.57;;;;;;;25.92;42.58;99515.44;4973313;28;20093;-66
2022/07/12 10:45:38;;;;;;;1.38;0.75;;;;;;;25.82;44.67;99525.50;4980931;28;20695;-66
2022/07/12 10:48:04;;;;;;;;;;;;;;;25.96;44.32;99510.63;4962999;28;20062;-66
2022/07/12 10:50:43;;;;;;;1.15;0.50;;;;;;;26.02;42.97;99509.78;4971923;28;20521;-66
2022/07/12 10:53:30;;;;;;;0.70;0.60;;;;;;;25.84;41.04;99511.88;4974055;28;20050;-69
2022/07/12 10:56:04;;;;;;;1.77;0.85;;;;;;;25.69;44.41;99502.69;4987294;28;20050;-67
2022/07/12 10:58:36;;;;;;;1.08;0.52;;;;;;;25.73;44.43;99497.91;4980646;28;20093;-67
2022/07/12 11:01:19;;;;;;;3.92;0.80;;;;;;;26.03;44.53;99508.59;4968660;28;20048;-67
2022/07/12 11:03:49;;;;;;;;;;;;;;;26.27;43.85;99498.41;4971480;28;20046;-66
2022/07/12 11:06:17;;;;;;;4.30;0.80;;;;;;;26.47;43.50;99497.94;4971125;28;20183;-67
2022/07/12 11:08:50;;;;;;;0.82;0.60;;;;;;;26.59;43.64;99508.66;4974084;28;20056;-68
2022/07/12 11:11:16;;;;;;;1.85;0.85;;;;;;;26.76;42.84;99502.09;4971148;28;20058;-66
2022/07/12 11:13:42;;;;;;;5.95;1.15;;;;;;;26.77;40.88;99498.09;4988656;28;20042;-67
2022/07/12 11:16:08;;;;;;;3.38;1.20;;;;;;;26.76;40.50;99495.69;4988921;28;20055;-68
2022/07/12 11:18:35;;;;;;;2.97;1.13;;;;;;;26.75;41.48;99499.72;5029050;28;20045;-68
2022/07/12 11:21:01;;;;;;;2.05;0.90;;;;;;;26.85;41.88;99494.00;5014289;28;20041;-68
2022/07/12 11:23:28;;;;;;;3.38;1.20;;;;;;;26.90;40.80;99492.78;5024544;28;20050;-68
2022/07/12 11:25:59;;;;;;;5.15;1.00;;;;;;;26.83;39.72;99487.22;5015410;28;20048;-68
2022/07/12 11:28:27;;;;;;;7.55;1.17;;;;;;;26.79;40.64;99483.63;5024897;28;20683;-68
2022/07/12 11:31:01;;;;;;;3.38;1.05;;;;;;;26.91;41.13;99468.31;5023277;28;20072;-69
2022/07/12 11:33:32;;;;;;;6.35;1.15;;;;;;;27.00;39.76;99471.41;5002444;28;20049;-68
2022/07/12 11:35:59;;;;;;;6.65;1.85;;;;;;;26.90;39.28;99467.50;5003735;28;20135;-68
2022/07/12 11:38:26;;;;;;;4.28;1.70;;;;;;;26.84;39.55;99469.16;5017788;28;20041;-68
2022/07/12 11:40:59;;;;;;;9.88;3.80;;;;;;;26.87;39.97;99468.34;5009916;28;20044;-72
2022/07/12 11:43:25;;;;;;;7.80;2.63;;;;;;;26.90;40.05;99470.31;5008260;28;20873;-68